createdAt,value
2018-09-30T04:32:17.209Z,17.8
2018-09-30T04:41:31.464Z,18.1
2018-09-30T05:31:31.614Z,18.2
2018-09-30T05:41:32.220Z,21.2
2018-09-30T05:51:31.468Z,22.2
2018-09-30T06:32:14.104Z,20.5
2018-09-30T06:41:31.206Z,20.5
2018-09-30T06:51:57.489Z,21.6
2018-09-30T07:01:31.215Z,22.4
2018-09-30T07:11:25.414Z,25.5
2018-09-30T07:21:27.704Z,21.1
2018-09-30T07:31:32.145Z,18.1
2018-09-30T07:41:33.052Z,14.6
2018-09-30T08:31:32.573Z,7.7
2018-09-30T08:41:32.242Z,5.4
2018-09-30T08:52:03.843Z,5.8
2018-09-30T09:01:32.173Z,4.4
2018-09-30T09:11:32.631Z,4.9
2018-09-30T09:21:32.328Z,5.2
2018-09-30T09:31:31.910Z,3.6
2018-09-30T09:41:31.752Z,4.3
2018-09-30T09:51:32.250Z,3.7
2018-09-30T10:01:31.781Z,3.8
2018-09-30T10:11:31.694Z,3.2
2018-09-30T10:21:32.039Z,3.1
2018-09-30T10:31:31.995Z,2.9
2018-09-30T10:42:22.431Z,3.0
2018-09-30T11:11:26.581Z,3.4
2018-09-30T11:21:47.315Z,2.2
2018-09-30T11:31:32.715Z,2.9
2018-09-30T11:41:36.157Z,2.3
2018-09-30T11:51:31.437Z,2.3
2018-09-30T12:01:32.124Z,2.1
2018-09-30T12:11:31.106Z,2.5
2018-09-30T12:21:26.779Z,1.6
2018-09-30T12:31:27.077Z,1.9
2018-09-30T12:41:32.561Z,1.6
2018-09-30T12:51:30.965Z,2.3
2018-09-30T13:01:30.296Z,1.9
2018-09-30T13:11:26.458Z,2.0
2018-09-30T13:21:28.801Z,2.0
2018-09-30T13:31:32.984Z,2.4
2018-09-30T13:41:26.797Z,1.9
2018-09-30T13:51:28.047Z,2.2
2018-09-30T14:01:31.665Z,1.8
2018-09-30T14:11:26.562Z,2.3
2018-09-30T14:21:57.552Z,2.3
2018-09-30T14:31:32.513Z,2.3
2018-09-30T14:41:25.908Z,2.1
2018-09-30T14:51:28.687Z,2.2
2018-09-30T15:01:32.879Z,1.8
2018-09-30T15:11:30.527Z,1.8
2018-09-30T15:21:31.663Z,1.9
2018-09-30T15:31:32.066Z,5.3
2018-09-30T15:41:31.592Z,1.9
2018-09-30T15:51:32.497Z,2.1
2018-09-30T16:01:32.444Z,2.2
2018-09-30T16:11:26.277Z,2.2
2018-09-30T16:21:26.096Z,2.0
2018-09-30T16:31:27.393Z,2.4
2018-09-30T16:41:30.246Z,2.1
2018-09-30T16:51:27.427Z,2.7
2018-09-30T18:31:32.674Z,10.2
2018-09-30T18:41:49.528Z,13.1
2018-09-30T18:51:26.816Z,12.3
2018-09-30T19:01:27.820Z,11.5
2018-09-30T19:11:30.098Z,10.9
2018-09-30T19:21:32.089Z,12.2
2018-09-30T19:31:36.024Z,12.5
2018-09-30T19:41:32.620Z,12.6
2018-09-30T19:51:28.441Z,12.4
2018-09-30T20:01:26.624Z,11.5
2018-09-30T20:11:26.946Z,13.1
2018-09-30T20:21:26.152Z,15.0
2018-09-30T20:31:36.822Z,18.1
2018-09-30T20:41:33.535Z,17.2
2018-09-30T20:51:32.818Z,15.9
2018-09-30T21:01:32.402Z,16.0
2018-09-30T21:21:45.939Z,16.7
2018-09-30T21:31:37.147Z,16.0
2018-09-30T21:41:29.260Z,17.0
2018-09-30T21:51:32.156Z,16.8
2018-09-30T22:01:32.623Z,17.8
2018-09-30T22:11:35.363Z,17.4
2018-09-30T22:21:26.908Z,18.2
2018-09-30T22:31:28.169Z,19.0
2018-09-30T22:41:28.396Z,16.1
2018-09-30T22:51:34.494Z,16.6
2018-09-30T23:01:26.911Z,15.4
2018-09-30T23:11:27.254Z,16.8
2018-09-30T23:21:26.474Z,15.2
2018-09-30T23:31:27.032Z,16.3
2018-09-30T23:41:29.952Z,16.1
2018-09-30T23:51:26.750Z,16.1
